map of LWR home
LWR - Airport
Location
City:  Leeuwarden, Fryslân (Friesland), Netherlands
Name:Leeuwarden AB
ICAO:EHLW
IATA:LWR

Details
Type:Airport (Aerodrome, Airfield)
Use:Military
Latitude:53°13'43"N (53.228611)
Longitude:5°45'38"E (5.760556)
Datum:WGS 1984
Elevation:3 ft (1 m)
Variation:1.58°E (WMM2015 magnetic declination)
0.14° annual change
Runways:2
Longest:9701 × 164 ft (2957 × 50 m), paved

Time
Time Zone:UTC+1 (DST+2)
Local Time:

Weather
METAR:EHLW 220455Z AUTO 16011KT 130V190 9999 OVC100 M03/M05 Q1008 BLU
TAF:EHLW 212127Z 2122/2210 18005KT 6000 FEW015 BKN025
BECMG 2207/2209 17015KT
BECMG 2209/2210 SCT018 BKN020

Related Locations
Nearby:
Farthest:CHT: 11771 mi / 18944 km
Waitangi [Tuuta], CIT, NZ

Find:

   beyond  
but within

Other Information
Maps:
NOTAMs:
Links:
Sources:

  
  • flag of Netherlands
  • flag of Fryslân (Friesland)
  

Airport Diagram

Airport diagram for LWR

Larger airport diagram (OBSOLETE) from NGA

Sectional Chart

Flight Planning
at skyvector.com

Satellite Image

Google Maps Satellite view

 

Copyright © 2004-2019 Karl L. Swartz. All rights reserved.
The Great Circle Mapper name and logo are trademarks of the Great Circle Mapper.
All other trademarks mentioned herein belong to their respective owners.
Please see credits for attibutions and further copyright information.

  Follow gcmap on Facebook Follow gcmap on Twitter Follow gcmap on Google+ GCmap on LinkedIn

hCard Microformat

Geo Microformat